Time;durP1;ratioP1;P1;durP2;ratioP2;P2;SDS_P1;SDS_P2;PMS_P1;PMS_P2;Temp;Humidity;BMP_temperature;BMP_pressure;BME280_temperature;BME280_humidity;BME280_pressure;Samples;Min_cycle;Max_cycle;Signal;HPM_P1;HPM_P2
2022/04/13 00:01:05;;;;;;;4.38;2.90;;;;;;;10.69;64.04;101515.34;2124850;27;20039;-76
2022/04/13 00:02:28;;;;;;;4.50;2.83;;;;;;;10.68;63.95;101510.91;2125378;27;20038;-76
2022/04/13 00:03:50;;;;;;;6.63;3.55;;;;;;;10.69;63.82;101510.06;2133256;27;20045;-76
2022/04/13 00:05:13;;;;;;;6.32;3.40;;;;;;;10.72;64.17;101512.78;2113476;27;20047;-76
2022/04/13 00:06:38;;;;;;;3.55;2.70;;;;;;;10.75;64.44;101510.25;2127207;27;20042;-76
2022/04/13 00:08:05;;;;;;;5.53;2.88;;;;;;;10.78;64.78;101505.00;2135990;27;20090;-76
2022/04/13 00:09:27;;;;;;;6.68;3.05;;;;;;;10.84;64.86;101505.19;2119396;27;20043;-76
2022/04/13 00:10:49;;;;;;;4.80;2.92;;;;;;;10.87;65.03;101501.72;2123690;27;20077;-76
2022/04/13 00:12:12;;;;;;;6.35;3.15;;;;;;;10.90;65.00;101501.81;2116169;27;20116;-76
2022/04/13 00:13:34;;;;;;;5.63;2.50;;;;;;;10.89;64.90;101506.22;2116175;27;20051;-76
2022/04/13 00:14:55;;;;;;;4.22;2.75;;;;;;;10.90;64.90;101507.97;2110717;28;20039;-75
2022/04/13 00:16:18;;;;;;;6.18;3.42;;;;;;;10.89;64.73;101503.56;2123188;27;20511;-76
2022/04/13 00:17:40;;;;;;;5.82;3.70;;;;;;;10.91;64.79;101496.56;2123479;27;20103;-76
2022/04/13 00:19:03;;;;;;;11.70;5.97;;;;;;;10.90;64.90;101497.41;2110314;28;20075;-76
2022/04/13 00:20:28;;;;;;;8.35;4.32;;;;;;;10.88;65.00;101491.22;2108237;28;20112;-76
2022/04/13 00:21:49;;;;;;;4.65;3.20;;;;;;;10.81;65.24;101496.28;2113794;27;20054;-76
2022/04/13 00:23:12;;;;;;;6.68;3.67;;;;;;;10.75;65.41;101494.41;2132535;27;20041;-76
2022/04/13 00:24:35;;;;;;;4.30;3.00;;;;;;;10.73;65.30;101489.06;2125738;27;20434;-76
2022/04/13 00:25:58;;;;;;;4.57;2.90;;;;;;;10.75;65.59;101497.94;2123410;27;20038;-76
2022/04/13 00:27:20;;;;;;;5.13;2.78;;;;;;;10.76;65.36;101491.75;2132787;27;20034;-76
2022/04/13 00:28:42;;;;;;;8.90;3.10;;;;;;;10.75;65.15;101502.31;2125948;27;20051;-77
2022/04/13 00:30:05;;;;;;;5.63;3.03;;;;;;;10.72;65.04;101496.94;2116145;28;20047;-76
2022/04/13 00:31:28;;;;;;;6.50;3.33;;;;;;;10.67;64.87;101501.22;2119396;27;20055;-76
2022/04/13 00:32:50;;;;;;;5.50;3.10;;;;;;;10.60;64.49;101500.16;2122134;27;20050;-76
2022/04/13 00:34:13;;;;;;;5.30;3.35;;;;;;;10.59;64.65;101497.47;2127196;27;20042;-76
2022/04/13 00:35:37;;;;;;;5.97;3.58;;;;;;;10.59;64.36;101497.47;2121772;28;20055;-76
2022/04/13 00:37:00;;;;;;;5.53;3.40;;;;;;;10.59;64.53;101497.47;2126908;27;20035;-75
2022/04/13 00:38:22;;;;;;;4.63;3.20;;;;;;;10.59;64.57;101498.34;2118659;27;20039;-76
2022/04/13 00:39:44;;;;;;;6.68;3.95;;;;;;;10.59;64.67;101500.09;2121087;27;20073;-75
2022/04/13 00:41:07;;;;;;;6.30;4.05;;;;;;;10.56;64.58;101505.31;2126735;27;20047;-76
2022/04/13 00:42:29;;;;;;;6.22;3.78;;;;;;;10.55;64.74;101500.88;2128360;27;20038;-76
2022/04/13 00:44:07;;;;;;;7.70;4.07;;;;;;;10.55;64.91;101501.78;2130579;27;20047;-76
2022/04/13 00:45:29;;;;;;;6.15;3.65;;;;;;;10.55;65.02;101499.13;2132826;27;20106;-76
2022/04/13 00:46:52;;;;;;;9.02;4.05;;;;;;;10.56;64.96;101497.41;2127141;27;20058;-76
2022/04/13 00:48:20;;;;;;;6.50;3.65;;;;;;;10.55;65.35;101493.84;2110635;28;20043;-76
2022/04/13 00:49:43;;;;;;;7.72;3.72;;;;;;;10.53;65.48;101492.91;2128235;27;20047;-76
2022/04/13 00:51:08;;;;;;;;;;;;;;;10.52;65.43;101496.41;2130681;27;20055;-76
2022/04/13 00:52:34;;;;;;;9.93;5.28;;;;;;;10.53;65.54;101492.00;2131212;27;19946;-76
2022/04/13 00:53:58;;;;;;;14.40;7.00;;;;;;;10.56;65.84;101487.72;2126516;27;20142;-75
2022/04/13 00:55:25;;;;;;;75.75;29.25;;;;;;;10.60;66.12;101492.22;2133988;27;20079;-76
2022/04/13 00:56:50;;;;;;;38.22;13.15;;;;;;;10.62;66.25;101487.00;2136759;27;20482;-76
2022/04/13 00:58:13;;;;;;;22.98;8.65;;;;;;;10.62;66.35;101479.97;2127873;27;20494;-76
2022/04/13 00:59:38;;;;;;;25.85;8.25;;;;;;;10.62;66.41;101492.28;2130956;27;20116;-76
2022/04/13 01:01:03;;;;;;;9.55;4.53;;;;;;;10.57;66.75;101483.31;2127610;27;20047;-77
2022/04/13 01:02:29;;;;;;;8.73;4.03;;;;;;;10.57;66.87;101486.84;2129924;27;20062;-75
2022/04/13 01:03:53;;;;;;;5.80;3.38;;;;;;;10.53;66.94;101490.28;2121120;27;20112;-76
2022/04/13 01:05:17;;;;;;;8.57;4.55;;;;;;;10.53;66.73;101486.72;2108149;28;20051;-76
2022/04/13 01:06:43;;;;;;;8.98;4.43;;;;;;;10.38;66.39;101495.13;2122708;27;20047;-76
2022/04/13 01:08:06;;;;;;;6.28;4.10;;;;;;;10.26;65.98;101485.13;2131756;27;20079;-75
2022/04/13 01:09:29;;;;;;;6.38;4.32;;;;;;;10.21;65.89;101486.72;2118780;28;20050;-76
2022/04/13 01:10:52;;;;;;;6.80;3.80;;;;;;;10.20;65.69;101484.03;2125088;27;20390;-76
2022/04/13 01:12:13;;;;;;;11.05;5.15;;;;;;;10.19;65.76;101482.25;2123880;27;20081;-76
2022/04/13 01:13:38;;;;;;;7.38;4.50;;;;;;;10.17;66.03;101484.88;2141673;27;20053;-76
2022/04/13 01:15:01;;;;;;;8.30;4.03;;;;;;;10.19;66.14;101484.88;2125301;27;20047;-76
2022/04/13 01:16:25;;;;;;;8.77;4.30;;;;;;;10.22;66.30;101479.72;2117313;27;20099;-75
2022/04/13 01:17:48;;;;;;;10.32;4.28;;;;;;;10.26;66.66;101482.47;2125918;27;20062;-76
2022/04/13 01:19:13;;;;;;;8.43;4.20;;;;;;;10.32;66.96;101484.38;2120107;27;20050;-76
2022/04/13 01:20:39;;;;;;;10.20;4.28;;;;;;;10.37;66.95;101475.75;2125951;27;20059;-76
2022/04/13 01:22:14;;;;;;;8.50;4.30;;;;;;;10.43;67.13;101477.69;2136868;27;20039;-76
2022/04/13 01:23:38;;;;;;;7.93;4.22;;;;;;;10.47;67.37;101478.66;2123142;27;20113;-76
2022/04/13 01:25:00;;;;;;;7.18;3.35;;;;;;;10.49;67.56;101471.69;2123288;27;20590;-76
2022/04/13 01:26:23;;;;;;;9.65;4.28;;;;;;;10.51;67.39;101476.13;2126979;27;20047;-76
2022/04/13 01:27:45;;;;;;;7.10;4.05;;;;;;;10.52;67.18;101477.03;2135019;27;20052;-76
2022/04/13 01:29:08;;;;;;;6.45;4.05;;;;;;;10.51;67.26;101476.13;2128615;27;20107;-76
2022/04/13 01:30:30;;;;;;;5.07;2.42;;;;;;;10.49;67.43;101474.31;2128760;27;20034;-77
2022/04/13 01:31:55;;;;;;;9.13;4.35;;;;;;;10.48;67.70;101478.69;2127575;27;20046;-76
2022/04/13 01:33:17;;;;;;;8.38;4.18;;;;;;;10.48;67.83;101472.53;2112097;28;20035;-76
2022/04/13 01:34:47;;;;;;;10.65;4.95;;;;;;;10.49;67.66;101467.28;2123118;27;20042;-76
2022/04/13 01:36:10;;;;;;;10.13;5.38;;;;;;;10.49;67.77;101475.22;2120130;27;20039;-76
2022/04/13 01:37:34;;;;;;;9.75;5.32;;;;;;;10.52;67.80;101474.38;2129330;27;20622;-76
2022/04/13 01:38:56;;;;;;;22.30;13.15;;;;;;;10.51;67.81;101485.78;2120437;27;20047;-76
2022/04/13 01:40:18;;;;;;;19.45;10.52;;;;;;;10.43;67.72;101476.78;2126387;27;20142;-77
2022/04/13 01:41:41;;;;;;;18.40;11.43;;;;;;;10.31;67.20;101480.84;2128783;27;20046;-76
2022/04/13 01:43:04;;;;;;;22.75;13.55;;;;;;;10.24;67.31;101481.53;2128179;27;20085;-76
2022/04/13 01:44:25;;;;;;;14.13;8.43;;;;;;;10.23;67.08;101473.59;2130471;27;20050;-76
2022/04/13 01:45:48;;;;;;;16.25;7.55;;;;;;;10.21;66.93;101476.19;2120177;27;20051;-76
2022/04/13 01:47:11;;;;;;;9.50;5.15;;;;;;;10.21;66.77;101473.53;2129216;27;20114;-77
2022/04/13 01:48:33;;;;;;;7.72;4.80;;;;;;;10.21;66.77;101468.25;2128813;27;20100;-76
2022/04/13 01:49:56;;;;;;;9.90;4.80;;;;;;;10.20;67.10;101470.84;2126023;27;20050;-76
2022/04/13 01:51:20;;;;;;;7.13;4.13;;;;;;;10.22;67.17;101463.88;2127428;27;20137;-75
2022/04/13 01:52:44;;;;;;;7.38;4.35;;;;;;;10.24;67.30;101467.47;2128596;27;20039;-77
2022/04/13 01:54:07;;;;;;;10.02;6.15;;;;;;;10.26;67.31;101461.38;2120071;27;20050;-76
2022/04/13 01:55:29;;;;;;;8.32;5.32;;;;;;;10.26;67.26;101464.00;2132087;27;20046;-77
2022/04/13 01:56:51;;;;;;;8.50;4.95;;;;;;;10.27;67.47;101467.53;2123464;27;20043;-76
2022/04/13 01:58:14;;;;;;;8.93;5.15;;;;;;;10.29;67.30;101465.84;2119923;27;20081;-76
2022/04/13 01:59:36;;;;;;;7.07;3.50;;;;;;;10.29;67.30;101461.47;2120382;27;20141;-76
2022/04/13 02:00:58;;;;;;;7.95;4.38;;;;;;;10.33;67.45;101465.06;2125816;27;20119;-76
2022/04/13 02:02:21;;;;;;;7.18;4.00;;;;;;;10.33;67.41;101463.31;2128163;27;20063;-76
2022/04/13 02:03:42;;;;;;;5.93;3.67;;;;;;;10.33;67.43;101457.16;2137229;27;20042;-76
2022/04/13 02:05:06;;;;;;;5.65;4.00;;;;;;;10.33;67.60;101457.16;2125842;27;20039;-76
2022/04/13 02:06:29;;;;;;;6.43;4.13;;;;;;;10.34;67.55;101456.31;2128549;27;20399;-75
2022/04/13 02:07:54;;;;;;;14.05;8.07;;;;;;;10.34;67.74;101449.28;2128810;27;20133;-76
2022/04/13 02:09:15;;;;;;;6.88;3.95;;;;;;;10.34;67.99;101444.00;2128774;27;20039;-76
2022/04/13 02:10:38;;;;;;;6.20;3.45;;;;;;;10.34;68.03;101451.03;2128491;27;20119;-76
2022/04/13 02:12:01;;;;;;;10.80;6.47;;;;;;;10.33;68.04;101449.22;2128478;27;20050;-76
2022/04/13 02:13:23;;;;;;;11.93;6.45;;;;;;;10.31;67.93;101451.81;2125847;27;20047;-76
2022/04/13 02:14:46;;;;;;;10.18;6.57;;;;;;;10.31;68.21;101454.47;2119856;27;20047;-76
2022/04/13 02:16:09;;;;;;;9.00;6.32;;;;;;;10.30;68.16;101452.72;2125416;27;20471;-76
2022/04/13 02:17:31;;;;;;;10.85;5.82;;;;;;;10.30;68.26;101451.81;2128723;27;20030;-76
2022/04/13 02:18:52;;;;;;;4.88;3.15;;;;;;;10.30;68.04;101450.06;2118045;27;20055;-76
2022/04/13 02:20:15;;;;;;;8.32;3.10;;;;;;;10.30;68.27;101451.81;2117237;27;20808;-76
2022/04/13 02:21:38;;;;;;;4.40;2.60;;;;;;;10.28;68.20;101451.75;2125031;27;20499;-77
2022/04/13 02:23:03;;;;;;;6.05;3.10;;;;;;;10.28;68.42;101449.13;2134740;27;20049;-76
2022/04/13 02:24:25;;;;;;;4.15;2.53;;;;;;;10.27;68.39;101449.06;2131038;27;20518;-76
2022/04/13 02:25:46;;;;;;;6.00;2.85;;;;;;;10.30;68.65;101457.09;2132272;27;20095;-76
2022/04/13 02:27:09;;;;;;;2.90;1.95;;;;;;;10.33;68.99;101451.88;2128378;27;20058;-76
2022/04/13 02:28:32;;;;;;;5.53;3.42;;;;;;;10.34;68.99;101449.28;2120454;27;20475;-76
2022/04/13 02:29:55;;;;;;;5.22;2.95;;;;;;;10.37;69.15;101440.56;2128301;27;20448;-76
2022/04/13 02:31:18;;;;;;;7.82;3.10;;;;;;;10.41;68.94;101438.91;2127354;27;20098;-76
2022/04/13 02:32:43;;;;;;;7.28;2.85;;;;;;;10.42;68.93;101443.31;2128157;27;20051;-77
2022/04/13 02:34:06;;;;;;;8.18;3.72;;;;;;;10.43;68.96;101435.47;2127413;27;20066;-76
2022/04/13 02:35:29;;;;;;;9.20;4.55;;;;;;;10.45;69.04;101435.47;2135953;27;20398;-75
2022/04/13 02:36:51;;;;;;;5.78;3.75;;;;;;;10.46;69.34;101438.16;2137030;27;20098;-76
2022/04/13 02:38:16;;;;;;;6.47;4.07;;;;;;;10.48;69.11;101435.56;2136949;27;20574;-76
2022/04/13 02:39:38;;;;;;;8.23;3.53;;;;;;;10.45;69.26;101431.09;2128302;27;20043;-76
2022/04/13 02:41:01;;;;;;;5.70;2.92;;;;;;;10.46;69.34;101437.25;2117871;27;20092;-77
2022/04/13 02:42:22;;;;;;;6.55;2.95;;;;;;;10.48;69.25;101438.22;2117063;27;20107;-77
2022/04/13 02:43:44;;;;;;;4.60;2.63;;;;;;;10.48;69.52;101431.19;2125382;27;20042;-76
2022/04/13 02:45:08;;;;;;;6.80;2.83;;;;;;;10.50;69.39;101439.16;2117234;27;20457;-77
2022/04/13 02:46:31;;;;;;;5.32;3.15;;;;;;;10.51;69.55;101433.88;2117088;27;20047;-76
2022/04/13 02:47:53;;;;;;;5.50;3.55;;;;;;;10.53;69.18;101433.94;2122891;27;20082;-76
2022/04/13 02:49:14;;;;;;;6.43;3.00;;;;;;;10.52;69.35;101438.31;2134240;27;20067;-76
2022/04/13 02:50:37;;;;;;;4.32;3.20;;;;;;;10.53;69.50;101431.31;2120668;27;20050;-76
2022/04/13 02:51:59;;;;;;;5.68;2.63;;;;;;;10.53;69.49;101431.31;2117388;27;20047;-76
2022/04/13 02:53:26;;;;;;;5.03;3.05;;;;;;;10.54;69.58;101428.72;2111060;28;20112;-76
2022/04/13 02:54:49;;;;;;;3.95;2.72;;;;;;;10.55;69.58;101426.97;2118374;27;20098;-76
2022/04/13 02:56:12;;;;;;;5.40;2.55;;;;;;;10.57;69.49;101425.22;2134368;27;20030;-76
2022/04/13 02:57:36;;;;;;;4.07;2.50;;;;;;;10.57;69.64;101434.03;2136968;27;20816;-77
2022/04/13 02:58:58;;;;;;;6.47;2.65;;;;;;;10.57;69.57;101431.41;2136828;27;20039;-76
2022/04/13 03:00:22;;;;;;;3.45;2.10;;;;;;;10.58;69.76;101421.75;2126128;27;20042;-76
2022/04/13 03:01:45;;;;;;;6.00;2.95;;;;;;;10.60;69.72;101434.16;2132322;27;20073;-76
2022/04/13 03:03:07;;;;;;;8.30;4.47;;;;;;;10.63;69.80;101430.69;2135010;27;20141;-75
2022/04/13 03:04:32;;;;;;;8.43;4.78;;;;;;;10.62;69.70;101424.53;2136940;27;20050;-76
2022/04/13 03:05:54;;;;;;;8.73;4.45;;;;;;;10.64;69.78;101428.06;2126919;27;20078;-76
2022/04/13 03:07:18;;;;;;;8.30;3.83;;;;;;;10.64;69.80;101432.47;2127622;27;20091;-76
2022/04/13 03:08:45;;;;;;;4.72;2.70;;;;;;;10.58;69.77;101434.94;2134388;27;20049;-76
2022/04/13 03:10:07;;;;;;;7.10;3.70;;;;;;;10.51;69.97;101431.25;2137093;27;20066;-77
2022/04/13 03:11:29;;;;;;;6.07;3.30;;;;;;;10.35;69.90;101435.25;2136559;27;20122;-76
2022/04/13 03:12:52;;;;;;;5.28;2.67;;;;;;;10.23;69.61;101434.91;2119418;27;20055;-76
2022/04/13 03:14:14;;;;;;;5.35;2.85;;;;;;;10.18;69.72;101446.16;2102629;28;20082;-76
2022/04/13 03:15:36;;;;;;;7.38;3.50;;;;;;;10.13;69.71;101445.09;2115459;27;20047;-76
2022/04/13 03:16:58;;;;;;;7.13;3.15;;;;;;;10.08;69.51;101436.19;2133708;27;20119;-76
2022/04/13 03:18:20;;;;;;;10.23;8.00;;;;;;;10.07;69.67;101448.47;2136291;27;20042;-76
2022/04/13 03:19:43;;;;;;;10.10;5.60;;;;;;;10.05;69.69;101442.25;2127954;27;20542;-75
2022/04/13 03:21:05;;;;;;;9.85;6.55;;;;;;;10.05;69.72;101439.63;2136433;27;20050;-76
2022/04/13 03:22:27;;;;;;;11.52;6.78;;;;;;;10.08;69.85;101442.34;2128400;27;20061;-76
2022/04/13 03:23:52;;;;;;;;;;;;;;;10.12;69.85;101441.56;2119760;27;20510;-76
2022/04/13 03:25:13;;;;;;;10.65;6.60;;;;;;;10.13;69.69;101434.56;2126606;27;19926;-76
2022/04/13 03:26:35;;;;;;;8.50;5.82;;;;;;;10.16;69.80;101442.56;2119305;27;20457;-76
2022/04/13 03:27:58;;;;;;;7.50;5.35;;;;;;;10.17;69.93;101445.31;2118509;27;20483;-76
2022/04/13 03:29:21;;;;;;;7.95;5.63;;;;;;;10.18;69.94;101447.06;2125346;27;20054;-76
2022/04/13 03:30:43;;;;;;;7.60;5.20;;;;;;;10.18;69.87;101446.16;2127966;27;20098;-76
2022/04/13 03:32:07;;;;;;;9.15;5.30;;;;;;;10.17;70.04;101454.97;2126047;27;20043;-77
2022/04/13 03:33:29;;;;;;;7.20;5.05;;;;;;;10.16;70.23;101455.75;2119586;27;20047;-76
2022/04/13 03:34:51;;;;;;;9.65;4.97;;;;;;;10.15;70.07;101459.25;2110576;28;20092;-76
2022/04/13 03:36:16;;;;;;;9.30;5.25;;;;;;;10.14;70.26;101450.44;2112938;27;20054;-76
2022/04/13 03:37:39;;;;;;;10.30;4.63;;;;;;;10.15;70.36;101462.78;2112373;27;20035;-76
2022/04/13 03:39:02;;;;;;;9.75;4.25;;;;;;;10.18;70.44;101454.06;2133044;27;20054;-76
2022/04/13 03:40:26;;;;;;;5.97;3.08;;;;;;;10.19;70.47;101448.84;2135505;27;20047;-77
2022/04/13 03:41:48;;;;;;;7.15;4.10;;;;;;;10.25;70.68;101454.28;2136663;27;20038;-76
2022/04/13 03:43:11;;;;;;;7.57;4.25;;;;;;;10.28;70.68;101449.13;2127077;27;20043;-76
2022/04/13 03:44:34;;;;;;;9.35;4.20;;;;;;;10.32;70.83;101452.72;2113225;28;20066;-76
2022/04/13 03:45:56;;;;;;;7.30;3.60;;;;;;;10.34;70.80;101454.56;2108463;28;20044;-76
2022/04/13 03:47:19;;;;;;;12.00;4.93;;;;;;;10.36;70.66;101454.63;2125102;27;20104;-76
2022/04/13 03:48:41;;;;;;;7.75;4.45;;;;;;;10.35;70.83;101456.34;2136304;27;20049;-76
2022/04/13 03:50:04;;;;;;;10.18;3.85;;;;;;;10.35;70.81;101464.28;2127744;27;20562;-76
2022/04/13 03:51:27;;;;;;;8.25;4.72;;;;;;;10.37;70.53;101459.03;2124866;27;20617;-76
2022/04/13 03:52:49;;;;;;;6.45;4.03;;;;;;;10.37;70.59;101457.28;2124831;27;20130;-76
2022/04/13 03:54:13;;;;;;;12.85;4.15;;;;;;;10.38;70.63;101452.88;2107873;28;20043;-76
2022/04/13 03:55:36;;;;;;;6.50;3.85;;;;;;;10.38;70.51;101464.34;2114059;27;20366;-76
2022/04/13 03:56:59;;;;;;;7.63;4.65;;;;;;;10.38;70.67;101461.69;2118856;27;20099;-76
2022/04/13 03:58:21;;;;;;;10.68;4.60;;;;;;;10.42;70.54;101457.41;2115860;27;20062;-76
2022/04/13 03:59:44;;;;;;;11.88;4.70;;;;;;;10.47;70.80;101449.63;2124870;27;20443;-76
2022/04/13 04:01:07;;;;;;;8.32;4.55;;;;;;;10.53;70.95;101455.94;2112487;27;20398;-76
2022/04/13 04:02:29;;;;;;;6.63;3.60;;;;;;;10.59;71.09;101448.19;2111815;27;20043;-76
2022/04/13 04:03:50;;;;;;;9.68;4.22;;;;;;;10.66;71.10;101443.97;2110206;28;20063;-76
2022/04/13 04:05:13;;;;;;;5.78;3.05;;;;;;;10.72;71.29;101452.03;2132419;27;20045;-76
2022/04/13 04:06:36;;;;;;;5.78;2.78;;;;;;;10.76;71.39;101451.28;2136540;27;20496;-76
2022/04/13 04:07:58;;;;;;;5.05;3.25;;;;;;;10.84;71.46;101452.34;2127594;27;20042;-75
2022/04/13 04:09:22;;;;;;;8.50;3.85;;;;;;;10.94;71.48;101458.78;2131726;27;20094;-76
2022/04/13 04:10:44;;;;;;;6.85;3.95;;;;;;;11.01;71.49;101463.38;2125982;27;20087;-76
2022/04/13 04:12:07;;;;;;;15.10;6.00;;;;;;;11.07;71.56;101456.47;2131647;27;20046;-76
2022/04/13 04:13:29;;;;;;;10.00;5.28;;;;;;;11.11;71.41;101471.53;2136105;27;20432;-76
2022/04/13 04:14:52;;;;;;;7.53;4.25;;;;;;;11.17;71.28;101471.69;2129927;27;20035;-76
2022/04/13 04:16:14;;;;;;;11.73;4.88;;;;;;;11.26;71.19;101463.09;2121212;27;20051;-76
2022/04/13 04:17:36;;;;;;;8.15;3.40;;;;;;;11.36;71.04;101472.13;2102003;28;20059;-77
2022/04/13 04:18:58;;;;;;;5.13;3.10;;;;;;;11.46;70.98;101467.13;2121882;27;20046;-76
2022/04/13 04:20:21;;;;;;;14.27;7.32;;;;;;;11.59;70.88;101466.53;2127560;27;20482;-76
2022/04/13 04:21:42;;;;;;;11.95;5.85;;;;;;;11.74;70.79;101479.25;2124919;27;20038;-76
2022/04/13 04:23:05;;;;;;;16.30;8.55;;;;;;;11.89;70.71;101471.63;2127221;27;20059;-76
2022/04/13 04:24:28;;;;;;;17.48;9.10;;;;;;;12.06;70.58;101473.75;2118976;27;20094;-75
2022/04/13 04:25:51;;;;;;;14.00;6.72;;;;;;;12.21;70.36;101468.75;2110720;27;20051;-76
2022/04/13 04:27:13;;;;;;;10.32;5.50;;;;;;;12.36;70.09;101477.91;2124856;27;20050;-76
2022/04/13 04:28:36;;;;;;;7.22;3.80;;;;;;;12.51;69.85;101471.13;2121788;27;20062;-76
2022/04/13 04:29:59;;;;;;;9.48;3.50;;;;;;;12.64;69.71;101473.16;2123337;27;20042;-76
2022/04/13 04:31:49;;;;;;;7.50;3.30;;;;;;;12.77;69.58;101477.81;2118929;27;20626;-76
2022/04/13 04:33:04;;;;;;;8.20;3.92;;;;;;;12.93;69.38;101477.19;2121121;28;20047;-76
2022/04/13 04:34:27;;;;;;;7.80;4.00;;;;;;;13.06;69.39;101473.88;2121746;28;20046;-76
2022/04/13 04:35:50;;;;;;;8.27;4.43;;;;;;;13.22;69.29;101479.47;2116538;28;20043;-76
2022/04/13 04:37:12;;;;;;;9.77;4.60;;;;;;;13.32;69.15;101471.72;2118077;28;20138;-76
2022/04/13 04:38:35;;;;;;;12.90;6.68;;;;;;;13.41;68.85;101484.22;2116204;28;20408;-76
2022/04/13 04:39:59;;;;;;;18.20;10.15;;;;;;;13.51;68.82;101483.50;2121882;27;20066;-75
2022/04/13 04:41:21;;;;;;;16.33;9.13;;;;;;;13.57;68.47;101475.63;2118191;27;20087;-76
2022/04/13 04:42:47;;;;;;;21.15;8.90;;;;;;;13.70;68.34;101474.03;2125116;27;20057;-76
2022/04/13 04:44:10;;;;;;;16.40;9.43;;;;;;;13.80;68.12;101475.94;2128068;27;20050;-76
2022/04/13 04:45:32;;;;;;;12.25;6.05;;;;;;;13.90;67.96;101476.13;2121330;28;20049;-76
2022/04/13 04:46:55;;;;;;;10.82;5.88;;;;;;;14.02;67.76;101486.00;2125150;27;20079;-76
2022/04/13 04:48:18;;;;;;;12.57;7.32;;;;;;;14.15;67.68;101479.97;2127633;27;20050;-76
2022/04/13 04:49:40;;;;;;;10.48;6.03;;;;;;;14.28;67.62;101488.97;2129924;27;20051;-76
2022/04/13 04:51:03;;;;;;;9.50;4.72;;;;;;;14.39;67.19;101481.16;2125936;27;20493;-76
2022/04/13 04:52:25;;;;;;;10.68;4.25;;;;;;;14.47;66.86;101492.78;2126541;27;20071;-77
2022/04/13 04:53:48;;;;;;;10.23;4.35;;;;;;;14.52;66.57;101491.03;2127820;27;20046;-76
2022/04/13 04:55:14;;;;;;;6.00;3.35;;;;;;;14.56;66.13;101483.16;2120832;27;20043;-76
2022/04/13 04:56:37;;;;;;;6.45;2.47;;;;;;;14.57;65.72;101489.34;2114915;28;20047;-76
2022/04/13 04:58:00;;;;;;;5.07;2.20;;;;;;;14.60;65.53;101490.25;2117945;27;20441;-75
2022/04/13 04:59:22;;;;;;;5.30;2.13;;;;;;;14.70;65.14;101496.59;2129338;27;20594;-76
2022/04/13 05:00:44;;;;;;;4.93;2.20;;;;;;;14.80;64.42;101494.91;2123519;27;20058;-76
2022/04/13 05:02:07;;;;;;;7.35;2.38;;;;;;;14.88;63.91;101488.78;2112170;27;20048;-76
2022/04/13 05:03:28;;;;;;;5.20;2.22;;;;;;;14.97;62.91;101494.19;2125467;27;20110;-75
2022/04/13 05:04:50;;;;;;;5.20;1.90;;;;;;;15.08;61.88;101499.63;2129144;27;20054;-76
2022/04/13 05:06:13;;;;;;;2.13;1.48;;;;;;;15.22;61.06;101495.31;2134163;27;20042;-75
2022/04/13 05:07:36;;;;;;;6.28;2.03;;;;;;;15.37;60.48;101495.41;2130874;27;20147;-76
2022/04/13 05:08:58;;;;;;;3.58;1.52;;;;;;;15.54;59.74;101495.59;2117755;27;20086;-76
2022/04/13 05:10:22;;;;;;;3.15;1.40;;;;;;;15.69;58.87;101485.00;2111887;28;20131;-76
2022/04/13 05:11:45;;;;;;;7.60;1.70;;;;;;;15.85;58.24;101494.91;2120736;27;20091;-75
2022/04/13 05:13:08;;;;;;;5.80;1.70;;;;;;;16.04;57.54;101498.53;2127650;27;20424;-76
2022/04/13 05:14:30;;;;;;;2.22;1.20;;;;;;;16.21;56.67;101495.97;2120124;27;20047;-76
2022/04/13 05:15:52;;;;;;;3.53;1.40;;;;;;;16.37;55.77;101492.47;2111863;28;20039;-76
2022/04/13 05:17:16;;;;;;;4.47;2.00;;;;;;;16.51;55.36;101496.06;2120991;27;20069;-75
2022/04/13 05:18:39;;;;;;;2.88;1.40;;;;;;;16.63;54.76;101496.13;2120372;27;20133;-77
2022/04/13 05:20:01;;;;;;;5.15;2.08;;;;;;;16.77;54.52;101488.19;2128929;27;20047;-76
2022/04/13 05:21:24;;;;;;;3.03;1.42;;;;;;;16.90;54.00;101491.75;2123065;27;20402;-76
2022/04/13 05:22:46;;;;;;;2.90;1.63;;;;;;;17.05;53.52;101492.66;2132715;27;20034;-76
2022/04/13 05:24:10;;;;;;;5.25;1.33;;;;;;;17.19;52.49;101492.69;2130648;27;20076;-76
2022/04/13 05:25:34;;;;;;;4.55;1.20;;;;;;;17.25;52.26;101492.69;2128965;27;20103;-76
2022/04/13 05:26:57;;;;;;;2.15;1.20;;;;;;;17.24;51.26;101498.00;2122071;27;20070;-75
2022/04/13 05:28:18;;;;;;;7.85;2.08;;;;;;;17.22;51.40;101502.44;2132857;27;20082;-76
2022/04/13 05:29:41;;;;;;;2.33;1.33;;;;;;;17.35;51.33;101499.78;2112059;27;20066;-76
2022/04/13 05:31:03;;;;;;;1.65;1.23;;;;;;;17.52;50.76;101503.31;2126299;27;20083;-76
2022/04/13 05:32:26;;;;;;;5.28;2.00;;;;;;;17.72;50.16;101495.31;2129005;27;20039;-76
2022/04/13 05:33:48;;;;;;;3.28;1.30;;;;;;;17.91;49.78;101496.19;2120700;27;20042;-76
2022/04/13 05:35:10;;;;;;;2.97;1.52;;;;;;;18.11;49.10;101505.03;2125987;27;20050;-76
2022/04/13 05:36:32;;;;;;;3.80;1.63;;;;;;;18.23;48.68;101499.63;2122168;27;20042;-76
2022/04/13 05:37:54;;;;;;;3.63;1.50;;;;;;;18.45;48.54;101496.84;2125825;27;20054;-77
2022/04/13 05:39:17;;;;;;;1.90;1.02;;;;;;;18.66;47.84;101499.44;2111687;28;20051;-77
2022/04/13 05:40:41;;;;;;;9.45;1.67;;;;;;;18.80;47.45;101491.34;2118011;27;20047;-76
2022/04/13 05:42:03;;;;;;;3.25;1.23;;;;;;;18.97;47.17;101497.50;2119132;27;20430;-77
2022/04/13 05:43:28;;;;;;;2.55;1.25;;;;;;;19.06;46.68;101502.75;2127862;27;20062;-76
2022/04/13 05:44:51;;;;;;;2.40;1.10;;;;;;;19.14;46.05;101505.38;2129392;27;20053;-76
2022/04/13 05:46:13;;;;;;;4.35;1.38;;;;;;;19.23;45.67;101499.97;2128166;27;20085;-76
2022/04/13 05:47:35;;;;;;;1.35;0.90;;;;;;;19.30;45.53;101498.97;2117435;27;20051;-76
2022/04/13 05:48:59;;;;;;;;;;;;;;;19.26;44.40;101502.59;2134784;27;20177;-75
2022/04/13 05:50:20;;;;;;;7.97;1.25;;;;;;;19.35;45.07;101502.53;2127148;27;19970;-76
2022/04/13 05:51:43;;;;;;;3.00;1.00;;;;;;;19.50;44.76;101497.06;2117298;27;20054;-76
2022/04/13 05:53:05;;;;;;;1.77;0.90;;;;;;;19.67;44.59;101495.13;2124982;27;20051;-75
2022/04/13 05:54:28;;;;;;;3.67;1.05;;;;;;;19.83;43.98;101503.88;2128571;27;20074;-75
2022/04/13 05:55:55;;;;;;;2.00;1.00;;;;;;;19.98;43.97;101506.38;2125254;27;20386;-75
2022/04/13 05:57:18;;;;;;;8.45;2.13;;;;;;;20.04;43.29;101513.47;2122116;27;20055;-76
2022/04/13 05:58:41;;;;;;;3.65;1.10;;;;;;;20.06;42.87;101509.00;2123591;27;20517;-74
2022/04/13 06:00:03;;;;;;;3.58;1.20;;;;;;;19.75;42.99;101503.97;2124417;27;20129;-74
2022/04/13 06:01:27;;;;;;;1.67;1.20;;;;;;;19.52;43.81;101511.31;2124109;27;20051;-74
2022/04/13 06:02:50;;;;;;;2.25;0.88;;;;;;;19.69;44.01;101512.03;2114118;27;20079;-74
2022/04/13 06:04:12;;;;;;;1.23;1.10;;;;;;;19.89;43.07;101510.06;2116028;27;20065;-74
2022/04/13 06:05:38;;;;;;;5.47;1.40;;;;;;;20.00;42.51;101512.63;2126031;27;20540;-75
2022/04/13 06:07:01;;;;;;;2.75;1.02;;;;;;;20.13;42.57;101519.63;2116059;27;20092;-74
2022/04/13 06:08:23;;;;;;;2.42;1.02;;;;;;;20.27;42.44;101516.78;2117110;27;20636;-73
2022/04/13 06:09:46;;;;;;;2.53;1.08;;;;;;;20.27;42.19;101511.44;2124136;27;20091;-76
2022/04/13 06:11:10;;;;;;;1.65;0.80;;;;;;;20.37;41.89;101510.44;2128485;27;20137;-76
2022/04/13 06:12:32;;;;;;;5.32;1.05;;;;;;;20.46;42.06;101507.63;2120245;27;20082;-76
2022/04/13 06:13:54;;;;;;;2.47;1.05;;;;;;;20.59;42.16;101513.72;2122198;27;20054;-76
2022/04/13 06:15:17;;;;;;;2.13;1.08;;;;;;;20.76;42.03;101511.69;2120774;27;20137;-76
2022/04/13 06:16:39;;;;;;;2.45;1.05;;;;;;;20.82;41.43;101513.38;2120133;27;20039;-76
2022/04/13 06:18:02;;;;;;;2.50;1.02;;;;;;;20.62;41.85;101519.91;2119934;27;20043;-76
2022/04/13 06:19:24;;;;;;;3.45;1.13;;;;;;;20.68;41.99;101525.19;2119845;27;20487;-76
2022/04/13 06:20:47;;;;;;;4.38;1.00;;;;;;;20.84;41.55;101520.53;2120232;27;20051;-74
2022/04/13 06:22:10;;;;;;;2.80;1.42;;;;;;;21.02;41.27;101519.34;2136684;27;20046;-73
2022/04/13 06:23:32;;;;;;;2.42;0.98;;;;;;;21.21;41.20;101512.81;2122619;27;20035;-74
2022/04/13 06:24:55;;;;;;;2.80;1.20;;;;;;;21.30;40.91;101515.38;2122586;27;20061;-74
2022/04/13 06:26:19;;;;;;;2.17;1.20;;;;;;;21.34;40.49;101508.13;2111472;28;20044;-74